Time;durP1;ratioP1;P1;durP2;ratioP2;P2;SDS_P1;SDS_P2;PMS_P1;PMS_P2;Temp;Humidity;BMP_temperature;BMP_pressure;BME280_temperature;BME280_humidity;BME280_pressure;Samples;Min_cycle;Max_cycle;Signal;HPM_P1;HPM_P2
2022/12/29 00:00:11;;;;;;;6.22;2.70;;;11.70;89.50;;;;;;5004535;28;20030;-76
2022/12/29 00:02:37;;;;;;;4.75;1.92;;;11.80;89.50;;;;;;4996903;28;20121;-74
2022/12/29 00:05:04;;;;;;;3.42;1.90;;;11.70;89.30;;;;;;5001632;28;20057;-74
2022/12/29 00:07:30;;;;;;;4.15;2.10;;;11.80;89.10;;;;;;5003606;28;20129;-73
2022/12/29 00:09:56;;;;;;;3.35;2.00;;;11.90;88.90;;;;;;5004902;28;20045;-73
2022/12/29 00:12:22;;;;;;;4.82;2.15;;;11.90;88.90;;;;;;5001292;28;20038;-74
2022/12/29 00:17:33;;;;;;;3.70;1.88;;;11.80;88.60;;;;;;4998694;28;20341;-76
2022/12/29 00:36:36;;;;;;;6.10;1.98;;;12.00;87.40;;;;;;5005159;28;20096;-78
2022/12/29 00:44:37;;;;;;;4.35;1.70;;;12.10;87.10;;;;;;5003902;28;20091;-75
2022/12/29 00:47:04;;;;;;;4.35;1.50;;;12.00;87.10;;;;;;5003350;28;20102;-75
2022/12/29 00:49:30;;;;;;;6.05;2.22;;;12.00;87.10;;;;;;5005106;28;20412;-76
2022/12/29 00:52:06;;;;;;;4.70;1.67;;;12.00;87.10;;;;;;5005793;28;20037;-75
2022/12/29 00:54:34;;;;;;;4.28;1.83;;;12.00;87.10;;;;;;5002871;28;20034;-75
2022/12/29 00:57:01;;;;;;;5.72;2.10;;;11.90;87.20;;;;;;5004846;28;20661;-73
2022/12/29 00:59:27;;;;;;;7.05;2.17;;;11.90;87.20;;;;;;5007851;28;20034;-75
2022/12/29 01:01:54;;;;;;;7.13;2.15;;;11.90;87.30;;;;;;5000480;28;20033;-75
2022/12/29 01:04:22;;;;;;;7.15;2.10;;;11.90;87.10;;;;;;5004096;28;20062;-75
2022/12/29 01:06:48;;;;;;;8.02;1.90;;;11.90;87.00;;;;;;5007742;28;20278;-75
2022/12/29 01:12:04;;;;;;;7.05;1.75;;;11.90;87.10;;;;;;5002975;28;20108;-73
2022/12/29 01:14:30;;;;;;;7.03;2.25;;;11.80;86.80;;;;;;5003322;28;20042;-74
2022/12/29 01:16:56;;;;;;;9.50;1.92;;;11.90;86.80;;;;;;4995848;28;20101;-74
2022/12/29 01:19:22;;;;;;;9.13;2.35;;;11.90;86.70;;;;;;5002036;28;20036;-74
2022/12/29 01:21:48;;;;;;;6.25;2.05;;;11.90;86.80;;;;;;5000002;28;20458;-75
2022/12/29 01:24:16;;;;;;;9.85;2.65;;;11.90;86.70;;;;;;4999366;28;20037;-75
2022/12/29 01:26:42;;;;;;;6.32;2.10;;;11.90;86.70;;;;;;4996216;28;20431;-75
2022/12/29 01:29:08;;;;;;;5.60;1.80;;;11.90;86.70;;;;;;5012560;28;20037;-76
2022/12/29 01:31:37;;;;;;;5.63;1.77;;;11.90;86.80;;;;;;5002183;28;20066;-74
2022/12/29 01:34:06;;;;;;;6.97;2.35;;;11.80;86.70;;;;;;5002446;28;20136;-74
2022/12/29 01:36:46;;;;;;;;;;;;;;;;;;;;;
2022/12/29 01:39:12;;;;;;;7.78;2.10;;;11.80;86.70;;;;;;4998329;28;20535;-75
2022/12/29 01:41:38;;;;;;;5.38;1.95;;;11.80;86.50;;;;;;4995619;28;20041;-75
2022/12/29 01:44:42;;;;;;;10.98;2.50;;;11.80;86.40;;;;;;5014133;28;20041;-74
2022/12/29 01:47:09;;;;;;;6.63;1.65;;;11.80;86.40;;;;;;4998513;28;20065;-74
2022/12/29 01:49:35;;;;;;;8.38;2.22;;;11.80;86.40;;;;;;5007153;28;20026;-75
2022/12/29 01:52:05;;;;;;;7.65;1.88;;;11.70;86.60;;;;;;4992608;28;20038;-75
2022/12/29 01:54:37;;;;;;;9.75;1.90;;;11.80;86.50;;;;;;4995173;28;20033;-75
2022/12/29 01:57:07;;;;;;;8.55;2.20;;;11.70;86.40;;;;;;4995161;28;20112;-75
2022/12/29 01:59:38;;;;;;;5.07;1.90;;;11.70;86.40;;;;;;5003098;28;20079;-76
2022/12/29 02:02:06;;;;;;;9.07;2.50;;;11.80;86.30;;;;;;5001809;28;20046;-75
2022/12/29 02:04:33;;;;;;;8.10;2.22;;;11.70;86.40;;;;;;5002676;28;20030;-74
2022/12/29 02:07:07;;;;;;;6.70;2.03;;;11.70;86.30;;;;;;4998188;28;20156;-77
2022/12/29 02:09:33;;;;;;;6.95;1.63;;;11.70;86.40;;;;;;4998341;28;20026;-75
2022/12/29 02:12:00;;;;;;;8.30;1.95;;;11.70;86.10;;;;;;4995600;28;20050;-76
2022/12/29 02:14:26;;;;;;;6.13;1.52;;;11.70;86.00;;;;;;4997266;28;20060;-75
2022/12/29 02:17:05;;;;;;;6.93;1.95;;;11.70;85.90;;;;;;4999669;28;20030;-75
2022/12/29 02:20:04;;;;;;;5.82;1.70;;;11.70;85.80;;;;;;5010499;28;20041;-75
2022/12/29 02:22:52;;;;;;;5.78;1.70;;;11.70;85.80;;;;;;5003477;28;20156;-75
2022/12/29 02:25:49;;;;;;;9.82;2.47;;;11.70;85.80;;;;;;4999383;28;20037;-75
2022/12/29 02:28:41;;;;;;;6.70;2.00;;;11.60;85.80;;;;;;4993649;28;20029;-76
2022/12/29 02:31:13;;;;;;;6.32;1.77;;;11.60;85.80;;;;;;5002619;28;20046;-75
2022/12/29 02:34:06;;;;;;;8.23;2.45;;;11.70;85.60;;;;;;5010864;28;20029;-74
2022/12/29 02:37:09;;;;;;;11.10;1.92;;;11.70;85.50;;;;;;4996151;28;20034;-78
2022/12/29 02:39:50;;;;;;;8.25;2.00;;;11.60;85.40;;;;;;4999028;28;20026;-75
2022/12/29 02:42:32;;;;;;;6.03;1.80;;;11.60;84.60;;;;;;4991294;28;20040;-74
2022/12/29 02:45:06;;;;;;;8.70;2.00;;;11.70;84.50;;;;;;4998759;28;20554;-75
2022/12/29 02:48:06;;;;;;;5.78;1.80;;;11.60;84.30;;;;;;5002219;28;20060;-76
2022/12/29 02:51:01;;;;;;;7.00;2.13;;;11.60;83.60;;;;;;5003760;28;20634;-75
2022/12/29 02:56:12;;;;;;;7.93;2.20;;;11.60;83.30;;;;;;4992683;28;20041;-75
2022/12/29 02:58:38;;;;;;;9.27;2.60;;;11.60;82.70;;;;;;5004453;28;20033;-75
2022/12/29 03:01:35;;;;;;;10.15;1.95;;;11.50;82.40;;;;;;4999849;28;20038;-75
2022/12/29 03:04:42;;;;;;;7.65;1.98;;;11.60;82.20;;;;;;4993041;28;20038;-74
2022/12/29 03:07:47;;;;;;;7.93;2.10;;;11.60;82.00;;;;;;4994432;28;20069;-75
2022/12/29 03:10:24;;;;;;;7.35;2.00;;;11.60;82.00;;;;;;4995916;28;20145;-75
2022/12/29 03:16:16;;;;;;;19.50;3.55;;;11.50;82.30;;;;;;4985448;28;20044;-75
2022/12/29 03:19:07;;;;;;;10.82;2.60;;;11.50;82.30;;;;;;5014530;28;20057;-74
2022/12/29 03:24:31;;;;;;;12.15;2.40;;;11.40;82.40;;;;;;5002292;28;20135;-75
2022/12/29 03:27:01;;;;;;;7.55;1.77;;;11.40;82.60;;;;;;5004243;28;20554;-74
2022/12/29 03:29:31;;;;;;;10.07;2.58;;;11.30;82.70;;;;;;4999216;28;20524;-74
2022/12/29 03:31:59;;;;;;;11.82;2.20;;;11.30;82.20;;;;;;4998803;28;20049;-75
2022/12/29 03:34:26;;;;;;;11.25;2.10;;;11.30;81.70;;;;;;5006594;28;20025;-75
2022/12/29 03:37:02;;;;;;;9.13;2.20;;;11.30;81.20;;;;;;4997029;28;20044;-75
2022/12/29 03:39:28;;;;;;;12.95;2.50;;;11.20;81.20;;;;;;4999782;28;20030;-74
2022/12/29 03:42:04;;;;;;;9.25;2.35;;;11.10;81.30;;;;;;4989565;28;20619;-76
2022/12/29 03:44:39;;;;;;;11.43;2.35;;;11.10;81.50;;;;;;4996995;28;20307;-75
2022/12/29 03:47:06;;;;;;;10.70;2.10;;;11.00;81.60;;;;;;5000218;28;20038;-76
2022/12/29 03:49:33;;;;;;;11.38;2.63;;;11.10;81.30;;;;;;4998194;28;20117;-75
2022/12/29 03:51:59;;;;;;;9.85;2.30;;;11.10;81.00;;;;;;4992814;28;20054;-74
2022/12/29 03:54:25;;;;;;;9.98;2.13;;;11.10;80.80;;;;;;5003957;28;20040;-76
2022/12/29 03:56:51;;;;;;;11.10;2.60;;;11.10;80.90;;;;;;5000616;28;20049;-74
2022/12/29 03:59:17;;;;;;;10.00;2.78;;;11.10;80.30;;;;;;5006105;28;20677;-74
2022/12/29 04:01:44;;;;;;;12.70;2.58;;;11.10;80.30;;;;;;4999355;28;20495;-75
2022/12/29 04:04:09;;;;;;;10.15;2.55;;;11.20;80.10;;;;;;4998221;28;20303;-75
2022/12/29 04:06:35;;;;;;;9.30;2.13;;;11.20;79.60;;;;;;4999843;28;20548;-74
2022/12/29 04:09:01;;;;;;;8.75;2.35;;;11.20;79.50;;;;;;5002232;28;20041;-75
2022/12/29 04:11:28;;;;;;;14.50;2.80;;;11.20;79.30;;;;;;4995207;28;20049;-75
2022/12/29 04:13:54;;;;;;;11.07;2.22;;;11.20;79.40;;;;;;4998409;28;20049;-75
2022/12/29 04:16:20;;;;;;;10.57;2.50;;;11.20;79.30;;;;;;4992820;28;20048;-76
2022/12/29 04:18:47;;;;;;;11.07;2.20;;;11.20;79.40;;;;;;4990906;28;20436;-74
2022/12/29 04:21:13;;;;;;;9.57;2.05;;;11.20;79.50;;;;;;5001668;28;20073;-75
2022/12/29 04:23:39;;;;;;;12.60;1.88;;;11.20;79.40;;;;;;5004652;28;20037;-75
2022/12/29 04:26:09;;;;;;;8.82;2.42;;;11.20;79.30;;;;;;4995898;28;20038;-75
2022/12/29 04:28:36;;;;;;;8.32;1.95;;;11.20;79.20;;;;;;5001106;28;20033;-74
2022/12/29 04:31:03;;;;;;;8.43;2.45;;;11.20;78.50;;;;;;5004078;28;20073;-75
2022/12/29 04:33:30;;;;;;;12.93;2.65;;;11.20;78.80;;;;;;4996056;28;20037;-75
2022/12/29 04:35:56;;;;;;;10.65;2.13;;;11.20;78.50;;;;;;5004159;28;20042;-74
2022/12/29 04:38:23;;;;;;;9.70;2.25;;;11.10;78.40;;;;;;5002696;28;20134;-74
2022/12/29 04:40:51;;;;;;;8.23;2.30;;;11.10;78.60;;;;;;4996719;28;20076;-75
2022/12/29 04:43:22;;;;;;;9.05;2.35;;;11.10;78.90;;;;;;5001042;28;20053;-75
2022/12/29 04:45:48;;;;;;;7.72;1.98;;;11.10;79.00;;;;;;5001549;28;20116;-75
2022/12/29 04:48:15;;;;;;;8.52;1.75;;;11.10;79.20;;;;;;5002233;28;20061;-75
2022/12/29 04:50:41;;;;;;;8.10;2.30;;;11.00;79.40;;;;;;5002271;28;20484;-75
2022/12/29 04:53:08;;;;;;;10.57;2.10;;;11.00;79.40;;;;;;5005859;28;20108;-74
2022/12/29 04:55:34;;;;;;;11.15;2.63;;;11.00;79.50;;;;;;5005311;28;20616;-75
2022/12/29 04:58:00;;;;;;;9.23;2.33;;;11.00;79.40;;;;;;5005784;28;20034;-74
2022/12/29 05:00:29;;;;;;;11.98;2.58;;;11.00;79.50;;;;;;4993301;28;20029;-74
2022/12/29 05:02:55;;;;;;;8.43;2.47;;;11.00;79.60;;;;;;5002180;28;20576;-75
2022/12/29 05:05:21;;;;;;;10.65;2.20;;;11.00;79.50;;;;;;5001277;28;20494;-74
2022/12/29 05:07:48;;;;;;;8.10;2.15;;;11.00;79.30;;;;;;5013158;28;20554;-76
2022/12/29 05:10:14;;;;;;;9.77;2.20;;;11.00;79.30;;;;;;5005637;28;20037;-75
2022/12/29 05:12:41;;;;;;;8.93;2.40;;;11.00;79.50;;;;;;5005942;28;20501;-74
2022/12/29 05:15:09;;;;;;;8.40;2.35;;;11.00;79.70;;;;;;4998168;28;20615;-74
2022/12/29 05:17:35;;;;;;;12.10;2.20;;;10.90;79.60;;;;;;5002609;28;20512;-75
2022/12/29 05:20:02;;;;;;;9.32;2.13;;;10.90;79.70;;;;;;5010743;28;20355;-74
2022/12/29 05:22:31;;;;;;;8.75;1.90;;;10.90;79.70;;;;;;5003549;28;20033;-75
2022/12/29 05:24:57;;;;;;;7.82;2.38;;;10.90;79.70;;;;;;5003715;28;20129;-75
2022/12/29 05:27:23;;;;;;;10.10;2.35;;;10.80;80.10;;;;;;5005202;28;20384;-75
2022/12/29 05:29:49;;;;;;;9.57;2.47;;;10.90;80.00;;;;;;5001976;28;20040;-73
2022/12/29 05:32:15;;;;;;;8.75;2.13;;;10.80;79.60;;;;;;5007713;28;20037;-76
2022/12/29 05:34:41;;;;;;;11.38;2.50;;;10.80;79.50;;;;;;4996411;28;20030;-75
2022/12/29 05:37:07;;;;;;;11.20;2.55;;;10.90;79.50;;;;;;4993239;28;20046;-75
2022/12/29 05:39:33;;;;;;;11.50;1.90;;;10.80;79.60;;;;;;5008419;28;20030;-75
2022/12/29 05:41:59;;;;;;;10.45;2.53;;;11.00;79.30;;;;;;5004012;28;20046;-75
2022/12/29 05:44:25;;;;;;;10.75;2.60;;;11.00;79.10;;;;;;5011717;28;20040;-75
2022/12/29 05:46:51;;;;;;;12.25;3.15;;;11.00;79.00;;;;;;4994191;28;20034;-75
2022/12/29 05:49:17;;;;;;;11.48;2.58;;;11.00;78.60;;;;;;5006334;28;20064;-74
2022/12/29 05:51:44;;;;;;;13.57;2.85;;;11.00;78.40;;;;;;5007336;28;20062;-75
2022/12/29 05:54:10;;;;;;;11.13;2.70;;;11.00;78.10;;;;;;5004855;28;20056;-75
2022/12/29 05:56:36;;;;;;;12.60;2.75;;;11.10;77.80;;;;;;5004679;28;20046;-74
2022/12/29 05:59:02;;;;;;;10.52;2.50;;;11.10;77.60;;;;;;5004286;28;20089;-74
2022/12/29 06:01:28;;;;;;;16.70;2.55;;;11.10;77.20;;;;;;4996142;28;20150;-74
2022/12/29 06:03:55;;;;;;;14.55;2.72;;;11.10;77.10;;;;;;4998530;28;20117;-75
2022/12/29 06:06:22;;;;;;;14.55;3.00;;;11.10;77.00;;;;;;4996732;28;20038;-75
2022/12/29 06:08:48;;;;;;;15.50;2.90;;;11.10;76.90;;;;;;5003407;28;20064;-74
2022/12/29 06:11:14;;;;;;;11.98;3.35;;;11.10;76.70;;;;;;5002650;28;20123;-77
2022/12/29 06:13:40;;;;;;;14.27;2.83;;;11.10;76.80;;;;;;5000036;28;20046;-75
2022/12/29 06:16:06;;;;;;;11.70;3.03;;;11.10;77.00;;;;;;4991431;28;20389;-75
2022/12/29 06:18:32;;;;;;;10.70;2.58;;;11.10;76.90;;;;;;5003448;28;20018;-75
2022/12/29 06:21:03;;;;;;;12.73;3.22;;;11.10;77.20;;;;;;5001106;28;20045;-74
2022/12/29 06:23:29;;;;;;;14.55;3.53;;;11.00;78.30;;;;;;5002761;28;20038;-75
2022/12/29 06:25:55;;;;;;;12.50;3.05;;;11.00;78.10;;;;;;4998801;28;20046;-75
2022/12/29 06:28:21;;;;;;;15.65;2.80;;;11.00;78.30;;;;;;5002716;28;20030;-75
2022/12/29 06:30:48;;;;;;;15.13;3.20;;;11.00;78.00;;;;;;4999616;28;20030;-74
2022/12/29 06:33:15;;;;;;;14.20;2.53;;;11.00;77.40;;;;;;5000759;28;20026;-74
2022/12/29 06:35:43;;;;;;;11.30;2.80;;;11.00;77.20;;;;;;4992691;28;20133;-75
2022/12/29 06:38:09;;;;;;;16.58;3.65;;;11.00;76.80;;;;;;4998487;28;20041;-74
2022/12/29 06:40:35;;;;;;;9.95;2.42;;;11.10;76.20;;;;;;5001722;28;20037;-74
2022/12/29 06:43:00;;;;;;;9.75;2.70;;;11.10;76.20;;;;;;4996239;28;20109;-74
2022/12/29 06:45:26;;;;;;;17.08;3.20;;;11.00;76.30;;;;;;4993802;28;20384;-75
2022/12/29 06:47:52;;;;;;;10.82;2.85;;;11.00;76.50;;;;;;5007670;28;20026;-74
2022/12/29 06:50:18;;;;;;;10.52;3.10;;;11.00;76.50;;;;;;4997553;28;20025;-75
2022/12/29 06:52:43;;;;;;;13.60;2.83;;;11.00;76.20;;;;;;5004119;28;20029;-75
2022/12/29 06:55:09;;;;;;;15.48;3.55;;;11.00;75.80;;;;;;4997603;28;20958;-74
2022/12/29 06:57:34;;;;;;;15.02;3.00;;;11.00;75.50;;;;;;4999037;28;20038;-75
2022/12/29 07:00:01;;;;;;;14.00;3.42;;;11.00;75.90;;;;;;4997369;28;20061;-74
2022/12/29 07:02:26;;;;;;;14.75;3.58;;;11.00;75.80;;;;;;5000335;28;20148;-74
2022/12/29 07:04:52;;;;;;;16.27;3.47;;;10.90;76.10;;;;;;4999222;28;20364;-75
2022/12/29 07:07:19;;;;;;;16.92;3.35;;;10.90;75.80;;;;;;4999114;28;20033;-74
2022/12/29 07:09:45;;;;;;;14.80;3.83;;;11.00;75.70;;;;;;5012530;28;20123;-74
2022/12/29 07:12:11;;;;;;;16.30;3.20;;;11.00;75.40;;;;;;5007020;28;20030;-74
2022/12/29 07:14:36;;;;;;;16.10;3.50;;;11.10;75.20;;;;;;5002875;28;20144;-74
2022/12/29 07:17:05;;;;;;;16.48;3.22;;;11.00;75.10;;;;;;5000588;28;20060;-74
2022/12/29 07:19:32;;;;;;;16.38;3.03;;;11.00;75.00;;;;;;5004958;28;20024;-74
2022/12/29 07:21:58;;;;;;;14.15;3.28;;;11.00;75.10;;;;;;5004745;28;20068;-74
2022/12/29 07:24:25;;;;;;;11.68;2.60;;;11.00;75.10;;;;;;5001105;28;20129;-74
2022/12/29 07:26:51;;;;;;;13.25;2.80;;;11.00;75.20;;;;;;5000055;28;20067;-74
2022/12/29 07:29:17;;;;;;;12.48;3.55;;;11.00;75.20;;;;;;5003056;28;20052;-74
2022/12/29 07:31:43;;;;;;;12.85;2.97;;;11.00;75.10;;;;;;4999526;28;20505;-75
2022/12/29 07:34:09;;;;;;;15.65;3.65;;;11.00;74.80;;;;;;5003472;28;20025;-74
2022/12/29 07:36:35;;;;;;;14.70;3.15;;;11.00;74.80;;;;;;5002586;28;20389;-74
2022/12/29 07:39:01;;;;;;;14.25;3.00;;;11.10;75.00;;;;;;5000012;28;20413;-74
2022/12/29 07:41:26;;;;;;;14.25;3.40;;;11.10;75.00;;;;;;4998409;28;20037;-75
2022/12/29 07:43:52;;;;;;;15.00;3.70;;;11.00;75.10;;;;;;5002611;28;20041;-75
2022/12/29 07:46:19;;;;;;;16.58;3.15;;;11.00;75.20;;;;;;4996331;28;20041;-75
2022/12/29 07:48:45;;;;;;;13.15;2.85;;;11.00;75.10;;;;;;5002464;28;20017;-74
2022/12/29 07:51:11;;;;;;;14.23;3.55;;;11.10;75.40;;;;;;5003230;28;20049;-76
2022/12/29 07:53:37;;;;;;;13.43;2.72;;;11.10;75.60;;;;;;5001854;28;20037;-73
2022/12/29 07:56:03;;;;;;;15.20;3.30;;;11.00;75.50;;;;;;5004121;28;20043;-75
2022/12/29 07:58:29;;;;;;;14.38;3.13;;;11.10;75.00;;;;;;4995097;28;20072;-76
2022/12/29 08:00:56;;;;;;;17.15;3.85;;;11.10;75.00;;;;;;4999459;28;20136;-76
2022/12/29 08:03:24;;;;;;;13.27;3.10;;;11.00;74.90;;;;;;5008075;28;20029;-76
2022/12/29 08:05:50;;;;;;;13.57;3.35;;;11.10;74.70;;;;;;5001462;28;20057;-75
2022/12/29 08:08:16;;;;;;;16.30;3.60;;;11.10;74.70;;;;;;5004571;28;20033;-74
2022/12/29 08:10:43;;;;;;;12.05;3.03;;;11.10;75.00;;;;;;5001789;28;20038;-75
2022/12/29 08:13:09;;;;;;;10.93;3.65;;;11.10;75.20;;;;;;5007667;28;20043;-75
2022/12/29 08:15:37;;;;;;;15.27;4.03;;;11.10;75.50;;;;;;4992867;28;20030;-74
2022/12/29 08:18:03;;;;;;;15.80;3.33;;;11.10;75.50;;;;;;4998366;28;20101;-74
2022/12/29 08:20:29;;;;;;;14.25;3.00;;;11.00;76.00;;;;;;4999837;28;20091;-75
2022/12/29 08:22:55;;;;;;;11.20;2.85;;;11.00;76.20;;;;;;5015904;28;20795;-76
2022/12/29 08:25:22;;;;;;;15.85;3.50;;;11.00;76.40;;;;;;5002582;28;20030;-75
2022/12/29 08:27:50;;;;;;;16.25;3.67;;;10.90;76.80;;;;;;5007363;28;21038;-75
2022/12/29 08:30:17;;;;;;;13.32;2.78;;;11.00;77.20;;;;;;5000543;28;20034;-75
2022/12/29 08:32:46;;;;;;;11.32;2.88;;;10.90;77.80;;;;;;5000631;28;20578;-76
2022/12/29 08:35:12;;;;;;;11.05;2.85;;;10.90;78.20;;;;;;4998268;28;20030;-74
2022/12/29 08:37:38;;;;;;;14.27;2.90;;;10.80;78.40;;;;;;4997949;28;20111;-74
2022/12/29 08:40:05;;;;;;;15.50;3.28;;;10.80;78.90;;;;;;5003796;28;20026;-75
2022/12/29 08:42:32;;;;;;;15.18;3.65;;;10.80;79.20;;;;;;5004353;28;20044;-75
2022/12/29 08:44:59;;;;;;;15.38;3.65;;;10.70;79.20;;;;;;5002861;28;20037;-76
2022/12/29 08:47:26;;;;;;;12.93;3.17;;;10.80;79.30;;;;;;5000958;28;20045;-75
2022/12/29 08:49:52;;;;;;;15.05;2.90;;;10.70;79.70;;;;;;5000207;28;20022;-75
2022/12/29 08:52:18;;;;;;;18.00;3.75;;;10.70;80.30;;;;;;4997695;28;20045;-74
2022/12/29 08:54:47;;;;;;;17.08;3.45;;;10.70;80.80;;;;;;5003454;28;20037;-75
2022/12/29 08:57:14;;;;;;;21.33;3.85;;;10.60;81.20;;;;;;5001601;28;20067;-75
2022/12/29 08:59:40;;;;;;;15.45;3.13;;;10.60;81.50;;;;;;5004395;28;20052;-76
2022/12/29 09:02:09;;;;;;;17.58;3.97;;;10.60;81.70;;;;;;5002646;28;20200;-76
2022/12/29 09:04:35;;;;;;;16.50;4.10;;;10.60;81.90;;;;;;5002620;28;20502;-75
2022/12/29 09:07:01;;;;;;;16.88;3.40;;;10.50;82.70;;;;;;4998452;28;20050;-77
2022/12/29 09:09:27;;;;;;;16.83;3.53;;;10.40;83.40;;;;;;5003578;28;20114;-75
2022/12/29 09:11:54;;;;;;;15.90;3.40;;;10.30;84.10;;;;;;4998168;28;20042;-74
2022/12/29 09:14:21;;;;;;;18.42;3.40;;;10.30;84.50;;;;;;4993687;28;20586;-75
2022/12/29 09:19:31;;;;;;;18.08;4.63;;;10.30;84.90;;;;;;5002348;28;20579;-76
2022/12/29 09:21:57;;;;;;;18.35;4.75;;;10.30;84.70;;;;;;4993131;28;20045;-76
2022/12/29 09:24:23;;;;;;;19.35;4.57;;;10.30;84.50;;;;;;4995359;28;20030;-76
2022/12/29 09:26:49;;;;;;;18.58;3.75;;;10.40;84.10;;;;;;4995855;28;20057;-74
2022/12/29 09:29:15;;;;;;;18.48;4.00;;;10.40;83.90;;;;;;4997183;28;20031;-75
2022/12/29 09:31:41;;;;;;;13.35;3.22;;;10.40;83.70;;;;;;4991480;28;20107;-75
2022/12/29 09:34:07;;;;;;;15.93;4.03;;;10.40;83.60;;;;;;4994979;28;20125;-75
2022/12/29 09:36:33;;;;;;;13.30;3.17;;;10.40;83.40;;;;;;4989208;28;20042;-77
2022/12/29 09:38:59;;;;;;;16.63;3.65;;;10.50;83.60;;;;;;4993267;28;20034;-75
2022/12/29 09:42:08;;;;;;;15.38;3.92;;;10.50;83.30;;;;;;4995587;28;20557;-74
2022/12/29 09:44:54;;;;;;;17.05;4.15;;;10.50;82.80;;;;;;4994551;28;20107;-74
2022/12/29 09:47:23;;;;;;;19.40;4.18;;;10.60;82.80;;;;;;4993782;28;20038;-75
2022/12/29 09:50:04;;;;;;;16.40;3.33;;;10.60;82.90;;;;;;5008946;28;20628;-76
2022/12/29 09:52:39;;;;;;;18.00;3.75;;;10.60;83.50;;;;;;4999349;28;20041;-75
2022/12/29 09:55:14;;;;;;;16.90;3.30;;;10.60;83.90;;;;;;4996830;28;20084;-74
2022/12/29 09:57:49;;;;;;;21.27;4.40;;;10.50;84.20;;;;;;4997193;28;20038;-73
2022/12/29 10:00:22;;;;;;;17.90;3.33;;;10.50;84.40;;;;;;4997983;28;20522;-74
2022/12/29 10:02:51;;;;;;;23.42;4.97;;;10.60;84.30;;;;;;4996840;28;20616;-74
2022/12/29 10:05:20;;;;;;;21.05;3.67;;;10.60;84.00;;;;;;5001888;28;20141;-75
2022/12/29 10:08:11;;;;;;;21.13;3.97;;;10.60;83.40;;;;;;4998728;28;20124;-74
2022/12/29 10:10:48;;;;;;;15.95;3.13;;;10.60;82.70;;;;;;4999202;28;20037;-74
2022/12/29 10:13:39;;;;;;;18.58;3.50;;;10.70;82.70;;;;;;4997382;28;20041;-73
2022/12/29 10:16:10;;;;;;;17.98;3.67;;;10.60;82.30;;;;;;4997150;28;20080;-74
2022/12/29 10:18:52;;;;;;;14.68;3.58;;;10.70;82.20;;;;;;4996739;28;20026;-73
2022/12/29 10:21:34;;;;;;;11.77;3.08;;;10.70;81.70;;;;;;4997134;28;20033;-73
2022/12/29 10:24:03;;;;;;;13.93;3.00;;;10.80;81.40;;;;;;5002366;28;20038;-73
2022/12/29 10:26:37;;;;;;;14.52;3.63;;;10.80;80.60;;;;;;5004894;28;20462;-73
2022/12/29 10:29:33;;;;;;;15.57;4.03;;;10.80;80.80;;;;;;5010733;28;20045;-73
2022/12/29 10:32:05;;;;;;;12.95;3.28;;;10.90;80.40;;;;;;4996334;28;20073;-73
2022/12/29 10:34:39;;;;;;;13.32;3.25;;;10.90;80.40;;;;;;4998462;28;20128;-74
2022/12/29 10:37:21;;;;;;;13.60;3.15;;;10.90;80.10;;;;;;4999983;28;20062;-73
2022/12/29 10:39:52;;;;;;;14.30;2.78;;;10.90;80.50;;;;;;4998617;28;20052;-74
2022/12/29 10:42:25;;;;;;;15.77;3.70;;;10.90;80.60;;;;;;4999810;28;20123;-73
2022/12/29 10:44:51;;;;;;;14.75;2.80;;;10.80;80.60;;;;;;4996468;28;20125;-74
2022/12/29 10:47:23;;;;;;;14.90;3.33;;;10.90;80.40;;;;;;4998230;28;20033;-74
2022/12/29 10:49:49;;;;;;;16.70;3.15;;;10.90;80.30;;;;;;4996401;28;20143;-73
2022/12/29 10:52:17;;;;;;;12.38;3.67;;;10.90;80.10;;;;;;4996434;28;20622;-74
2022/12/29 10:54:57;;;;;;;14.15;3.25;;;11.00;80.20;;;;;;4998459;28;20097;-73
2022/12/29 10:57:27;;;;;;;14.63;2.83;;;11.00;80.20;;;;;;4996456;28;20045;-73
2022/12/29 10:59:53;;;;;;;13.57;3.03;;;11.00;80.80;;;;;;4999301;28;20855;-73
2022/12/29 11:02:25;;;;;;;12.13;2.90;;;11.00;80.50;;;;;;4992375;28;20042;-74
2022/12/29 11:05:21;;;;;;;12.55;3.08;;;11.00;80.50;;;;;;4997915;28;20117;-74
2022/12/29 11:07:50;;;;;;;14.85;3.30;;;11.00;80.70;;;;;;5002454;28;20079;-74
2022/12/29 11:10:28;;;;;;;13.75;3.33;;;11.00;80.50;;;;;;4995326;28;20033;-73
2022/12/29 11:13:00;;;;;;;14.13;3.85;;;11.10;80.10;;;;;;4997258;28;20405;-75
2022/12/29 11:15:25;;;;;;;13.02;3.55;;;11.10;80.00;;;;;;4992491;28;20158;-75
2022/12/29 11:17:57;;;;;;;14.82;3.55;;;11.00;80.10;;;;;;4996483;28;20649;-74
2022/12/29 11:20:28;;;;;;;12.02;2.90;;;11.00;80.20;;;;;;4996606;28;20026;-74
2022/12/29 11:22:54;;;;;;;12.13;3.63;;;10.90;80.70;;;;;;4995430;28;20021;-74
2022/12/29 11:25:19;;;;;;;14.68;4.10;;;10.90;81.00;;;;;;4994264;28;20972;-74
2022/12/29 11:28:00;;;;;;;12.50;3.70;;;10.90;81.10;;;;;;5004722;28;20032;-74
2022/12/29 11:30:30;;;;;;;14.05;3.75;;;10.90;81.40;;;;;;4997274;28;20018;-74
2022/12/29 11:32:56;;;;;;;14.27;4.03;;;10.80;81.70;;;;;;4997255;28;20022;-74
2022/12/29 11:35:43;;;;;;;19.63;4.22;;;10.90;82.30;;;;;;4998969;28;20120;-76
2022/12/29 11:38:34;;;;;;;15.57;3.88;;;10.80;82.90;;;;;;4999611;28;20037;-75
2022/12/29 11:41:00;;;;;;;17.02;3.85;;;10.70;83.70;;;;;;5000963;28;20049;-75
2022/12/29 11:43:34;;;;;;;16.17;3.53;;;10.70;84.30;;;;;;4994429;28;20033;-75
2022/12/29 11:46:03;;;;;;;;;;;10.70;84.60;;;;;;4995644;28;20049;-75
2022/12/29 11:48:37;;;;;;;16.33;3.42;;;10.70;84.50;;;;;;4996517;28;20448;-75
2022/12/29 11:51:03;;;;;;;16.95;3.78;;;10.80;84.50;;;;;;4995336;28;20041;-75
2022/12/29 11:53:51;;;;;;;13.25;3.35;;;10.80;84.00;;;;;;5000585;28;20597;-75
2022/12/29 11:56:22;;;;;;;12.80;3.15;;;10.80;83.20;;;;;;4996686;28;20038;-75
2022/12/29 11:58:53;;;;;;;12.55;2.83;;;10.80;83.50;;;;;;4989897;28;20073;-75
2022/12/29 12:01:38;;;;;;;13.60;2.88;;;10.70;83.30;;;;;;4985948;28;20223;-75
2022/12/29 12:04:20;;;;;;;16.00;3.45;;;10.70;82.80;;;;;;4985139;28;20137;-75
2022/12/29 12:06:57;;;;;;;8.73;2.53;;;10.70;82.50;;;;;;4994692;28;20037;-75
2022/12/29 12:09:29;;;;;;;11.77;2.70;;;10.70;82.60;;;;;;4990551;28;20045;-75
2022/12/29 12:11:55;;;;;;;14.95;2.95;;;10.60;82.20;;;;;;4998075;28;20305;-75
2022/12/29 12:14:30;;;;;;;10.48;2.80;;;10.60;82.40;;;;;;4996328;28;20060;-75
2022/12/29 12:16:59;;;;;;;;;;;10.60;82.10;;;;;;4997360;28;20041;-74
2022/12/29 12:19:55;;;;;;;10.05;2.35;;;10.70;82.10;;;;;;4996676;28;19995;-74
2022/12/29 12:22:41;;;;;;;10.38;2.15;;;10.70;81.50;;;;;;4991680;28;20111;-74
2022/12/29 12:25:38;;;;;;;8.63;2.97;;;10.80;80.70;;;;;;4989628;28;20030;-75
2022/12/29 12:28:34;;;;;;;9.15;2.10;;;10.80;80.40;;;;;;5001645;28;20091;-74
2022/12/29 12:31:04;;;;;;;18.38;5.43;;;10.90;80.50;;;;;;4992016;28;20089;-74
2022/12/29 12:33:34;;;;;;;10.52;3.00;;;10.80;80.70;;;;;;4984754;28;20554;-75
2022/12/29 12:36:11;;;;;;;13.23;3.15;;;10.90;80.80;;;;;;5003651;28;20053;-75
2022/12/29 12:39:05;;;;;;;9.15;3.60;;;10.80;80.90;;;;;;5005461;28;20029;-74
2022/12/29 12:41:56;;;;;;;11.30;2.45;;;10.70;80.80;;;;;;5001641;28;20452;-74
2022/12/29 12:44:41;;;;;;;13.25;3.13;;;10.60;81.60;;;;;;4997195;28;20117;-74
2022/12/29 12:47:38;;;;;;;14.10;4.05;;;10.70;82.30;;;;;;5000767;28;20080;-74
2022/12/29 12:50:43;;;;;;;12.65;3.17;;;10.70;82.20;;;;;;5004402;28;21028;-74
2022/12/29 12:53:31;;;;;;;15.98;2.95;;;10.70;81.30;;;;;;4998063;28;20430;-74
2022/12/29 12:56:18;;;;;;;14.85;3.20;;;10.70;81.10;;;;;;4991900;28;20038;-74
2022/12/29 12:59:06;;;;;;;12.68;2.60;;;10.80;80.80;;;;;;5002496;28;20109;-75
2022/12/29 13:02:09;;;;;;;12.20;2.63;;;10.70;81.20;;;;;;4994838;28;20077;-74
2022/12/29 13:05:16;;;;;;;9.63;2.83;;;10.70;81.70;;;;;;5002615;28;20050;-74
2022/12/29 13:08:07;;;;;;;6.55;2.00;;;10.60;82.90;;;;;;4995735;28;20116;-75
2022/12/29 13:10:40;;;;;;;6.70;1.98;;;10.30;81.70;;;;;;4984207;28;20079;-75
2022/12/29 13:13:12;;;;;;;6.55;1.85;;;10.10;82.20;;;;;;4993529;28;20026;-76
2022/12/29 13:15:45;;;;;;;6.05;1.90;;;10.00;82.40;;;;;;4988141;28;20573;-75
2022/12/29 13:18:41;;;;;;;12.23;2.58;;;10.00;82.90;;;;;;4996979;28;20030;-74
2022/12/29 13:21:13;;;;;;;5.28;2.10;;;10.00;83.50;;;;;;4998166;28;20368;-76
2022/12/29 13:23:46;;;;;;;7.45;1.92;;;9.80;83.10;;;;;;4997388;28;20072;-75
2022/12/29 13:26:20;;;;;;;8.10;1.90;;;9.80;82.50;;;;;;5001307;28;20148;-75
2022/12/29 13:29:17;;;;;;;7.00;1.67;;;9.80;82.10;;;;;;4999057;28;20769;-75
2022/12/29 13:32:01;;;;;;;5.47;2.08;;;9.90;82.20;;;;;;5000573;28;20034;-75
2022/12/29 13:34:43;;;;;;;6.68;1.90;;;9.90;82.00;;;;;;5012151;28;20565;-74
2022/12/29 13:37:13;;;;;;;5.35;1.90;;;10.00;81.50;;;;;;4998149;28;20166;-74
2022/12/29 13:39:45;;;;;;;9.25;1.80;;;10.00;80.50;;;;;;5001621;28;20030;-74
2022/12/29 13:42:12;;;;;;;9.93;1.98;;;10.10;80.60;;;;;;5006244;28;20116;-74
2022/12/29 13:44:54;;;;;;;9.95;2.17;;;10.10;80.40;;;;;;5006337;28;20557;-74